createdAt,value
2023-04-06T00:00:51.733Z,6.55
2023-04-06T00:03:19.005Z,6.47
2023-04-06T00:05:46.266Z,6.52
2023-04-06T00:08:13.264Z,6.43
2023-04-06T00:10:40.577Z,6.41
2023-04-06T00:13:08.489Z,6.43
2023-04-06T00:15:35.716Z,6.57
2023-04-06T00:18:03.614Z,6.56
2023-04-06T00:20:30.682Z,6.53
2023-04-06T00:22:57.684Z,6.49
2023-04-06T00:25:24.792Z,6.43
2023-04-06T00:27:51.874Z,6.26
2023-04-06T00:30:19.060Z,6.35
2023-04-06T00:32:46.186Z,6.30
2023-04-06T00:35:13.413Z,6.28
2023-04-06T00:37:40.551Z,6.29
2023-04-06T00:40:08.185Z,6.34
2023-04-06T00:42:35.417Z,6.23
2023-04-06T00:45:03.203Z,6.24
2023-04-06T00:47:31.482Z,6.21
2023-04-06T00:49:58.524Z,6.12
2023-04-06T00:52:25.687Z,6.10
2023-04-06T00:54:54.188Z,6.02
2023-04-06T00:57:22.827Z,5.90
2023-04-06T00:59:55.578Z,5.84
2023-04-06T01:02:23.255Z,5.89
2023-04-06T01:04:55.177Z,5.80
2023-04-06T01:07:35.708Z,5.72
2023-04-06T01:10:12.874Z,5.81
2023-04-06T01:12:40.273Z,5.80
2023-04-06T01:15:16.476Z,5.67
2023-04-06T01:17:48.906Z,5.75
2023-04-06T01:20:17.666Z,5.75
2023-04-06T01:22:44.828Z,5.48
2023-04-06T01:25:13.445Z,5.72
2023-04-06T01:27:54.638Z,5.37
2023-04-06T01:30:44.723Z,5.72
2023-04-06T01:33:23.297Z,5.75
2023-04-06T01:36:10.607Z,5.73
2023-04-06T01:38:37.698Z,5.75
2023-04-06T01:41:04.799Z,5.76
2023-04-06T01:43:41.165Z,5.76
2023-04-06T01:46:10.622Z,5.73
2023-04-06T01:48:41.318Z,5.71
2023-04-06T01:51:23.126Z,5.64
2023-04-06T01:53:57.584Z,5.72
2023-04-06T01:56:33.593Z,5.68
2023-04-06T01:59:09.525Z,5.66
2023-04-06T02:01:40.836Z,5.57
2023-04-06T02:04:07.958Z,5.25
2023-04-06T02:06:35.034Z,5.62
2023-04-06T02:09:03.928Z,5.65
2023-04-06T02:11:31.444Z,5.60
2023-04-06T02:13:58.627Z,5.38
2023-04-06T02:16:49.808Z,5.55
2023-04-06T02:19:17.050Z,5.55
2023-04-06T02:21:44.370Z,5.46
2023-04-06T02:24:11.560Z,5.47
2023-04-06T02:26:38.557Z,5.31
2023-04-06T02:29:05.848Z,5.41
2023-04-06T02:31:33.773Z,5.39
2023-04-06T02:34:01.983Z,5.31
2023-04-06T02:36:31.067Z,5.35
2023-04-06T02:38:58.242Z,5.26
2023-04-06T02:41:25.406Z,5.31
2023-04-06T02:43:52.447Z,5.28
2023-04-06T02:46:36.546Z,5.25
2023-04-06T02:49:04.196Z,4.94
2023-04-06T02:51:34.475Z,5.30
2023-04-06T02:54:15.283Z,5.25
2023-04-06T02:56:42.305Z,5.26
2023-04-06T02:59:09.688Z,5.27
2023-04-06T03:01:37.433Z,5.09
2023-04-06T03:04:06.485Z,5.20
2023-04-06T03:06:33.640Z,5.20
2023-04-06T03:09:10.686Z,5.27
2023-04-06T03:11:41.422Z,5.20
2023-04-06T03:14:08.391Z,5.28
2023-04-06T03:16:35.706Z,5.30
2023-04-06T03:19:03.387Z,5.27
2023-04-06T03:21:34.125Z,5.40
2023-04-06T03:24:01.533Z,5.38
2023-04-06T03:26:28.558Z,5.40
2023-04-06T03:28:55.847Z,5.38
2023-04-06T03:31:28.335Z,5.41
2023-04-06T03:34:01.173Z,5.47
2023-04-06T03:36:34.979Z,5.47
2023-04-06T03:39:03.772Z,5.48
2023-04-06T03:41:33.786Z,5.45
2023-04-06T03:44:11.233Z,5.55
2023-04-06T03:46:38.315Z,5.47
2023-04-06T03:49:05.439Z,5.56
2023-04-06T03:51:32.574Z,5.61
2023-04-06T03:53:59.565Z,5.63
2023-04-06T03:56:26.634Z,5.66
2023-04-06T03:58:55.086Z,6.07
2023-04-06T04:01:22.341Z,6.17
2023-04-06T04:03:51.571Z,6.35
2023-04-06T04:06:19.077Z,6.48
2023-04-06T04:08:46.662Z,6.88
2023-04-06T04:11:13.676Z,7.19
2023-04-06T04:13:40.925Z,7.36
2023-04-06T04:16:09.409Z,7.58
2023-04-06T04:18:37.798Z,7.57
2023-04-06T04:21:07.021Z,7.47
2023-04-06T04:23:37.119Z,7.37
2023-04-06T04:26:04.611Z,7.32
2023-04-06T04:28:31.737Z,7.14
2023-04-06T04:30:58.996Z,7.32
2023-04-06T04:33:26.349Z,7.26
2023-04-06T04:35:56.429Z,7.20
2023-04-06T04:38:26.117Z,7.16
2023-04-06T04:40:56.086Z,7.25
2023-04-06T04:43:23.578Z,7.28
2023-04-06T04:45:50.821Z,7.28
2023-04-06T04:48:40.812Z,7.62
2023-04-06T04:51:08.954Z,7.75
2023-04-06T04:54:02.450Z,7.80
2023-04-06T04:56:32.080Z,7.97
2023-04-06T04:59:21.978Z,8.35
2023-04-06T05:01:56.596Z,8.43
2023-04-06T05:04:34.202Z,8.46
2023-04-06T05:07:08.984Z,8.50
2023-04-06T05:09:38.234Z,8.77
2023-04-06T05:12:06.519Z,9.40
2023-04-06T05:14:39.520Z,9.67
2023-04-06T05:17:12.837Z,9.70
2023-04-06T05:19:39.954Z,9.91
2023-04-06T05:22:07.835Z,10.31
2023-04-06T05:24:37.497Z,10.68
2023-04-06T05:27:07.786Z,10.95
2023-04-06T05:29:34.849Z,11.55
2023-04-06T05:32:03.077Z,11.97
2023-04-06T05:34:30.944Z,12.35
2023-04-06T05:37:02.403Z,12.86
2023-04-06T05:39:29.540Z,13.25
2023-04-06T05:41:56.792Z,13.25
2023-04-06T05:44:47.066Z,13.26
2023-04-06T05:47:16.412Z,13.34
2023-04-06T05:49:46.067Z,13.01
2023-04-06T05:52:25.024Z,12.84
2023-04-06T05:54:52.986Z,13.00
2023-04-06T05:57:20.016Z,13.39
2023-04-06T05:59:47.043Z,13.69
2023-04-06T06:02:15.693Z,14.11
2023-04-06T06:04:47.018Z,14.21
2023-04-06T06:07:16.404Z,15.20
2023-04-06T06:09:48.347Z,16.28
2023-04-06T06:12:21.544Z,17.33
2023-04-06T06:14:50.396Z,18.05
2023-04-06T06:17:17.403Z,19.14
2023-04-06T06:19:47.008Z,19.92
2023-04-06T06:22:14.376Z,20.45
2023-04-06T06:24:45.426Z,20.66
2023-04-06T06:27:13.078Z,20.88
2023-04-06T06:29:40.396Z,19.97
2023-04-06T06:32:07.770Z,18.95
2023-04-06T06:34:34.956Z,17.55
2023-04-06T06:37:04.734Z,17.10
2023-04-06T06:39:32.166Z,17.25
2023-04-06T06:42:01.761Z,17.33
2023-04-06T06:44:49.105Z,17.27
2023-04-06T06:47:16.287Z,17.31
2023-04-06T06:49:45.096Z,17.51
2023-04-06T06:52:12.190Z,18.09
2023-04-06T06:54:39.294Z,18.83
2023-04-06T06:57:06.316Z,19.84
2023-04-06T06:59:33.402Z,20.81
2023-04-06T07:02:00.830Z,21.44
2023-04-06T07:04:27.972Z,22.01
2023-04-06T07:06:55.028Z,22.09
2023-04-06T07:09:22.928Z,22.57
2023-04-06T07:11:49.986Z,22.59
2023-04-06T07:14:17.637Z,22.18
2023-04-06T07:16:48.020Z,21.55
2023-04-06T07:19:16.102Z,21.28
2023-04-06T07:21:43.542Z,20.67
2023-04-06T07:24:11.350Z,20.71
2023-04-06T07:26:38.516Z,21.05
2023-04-06T07:29:05.709Z,21.38
2023-04-06T07:31:33.126Z,21.78
2023-04-06T07:34:00.480Z,21.99
2023-04-06T07:36:27.662Z,21.82
2023-04-06T07:38:54.741Z,22.30
2023-04-06T07:41:23.382Z,22.47
2023-04-06T07:43:50.881Z,23.14
2023-04-06T07:46:18.643Z,23.83
2023-04-06T07:48:45.798Z,23.66
2023-04-06T07:51:15.395Z,23.67
2023-04-06T07:53:44.061Z,22.79
2023-04-06T07:56:11.371Z,21.76
2023-04-06T07:58:38.427Z,21.73
2023-04-06T08:01:05.741Z,22.00
2023-04-06T08:03:35.871Z,22.20
2023-04-06T08:06:03.632Z,22.50
2023-04-06T08:08:31.891Z,22.50
2023-04-06T08:11:01.403Z,22.41
2023-04-06T08:13:29.574Z,23.43
2023-04-06T08:15:56.638Z,23.49
2023-04-06T08:18:23.706Z,22.96
2023-04-06T08:20:50.820Z,21.72
2023-04-06T08:23:17.798Z,21.61
2023-04-06T08:25:44.812Z,21.04
2023-04-06T08:28:12.327Z,21.52
2023-04-06T08:30:43.022Z,21.87
2023-04-06T08:33:11.239Z,22.40
2023-04-06T08:35:38.409Z,22.91
2023-04-06T08:38:05.951Z,23.56
2023-04-06T08:40:38.466Z,23.89
2023-04-06T08:43:10.245Z,24.50
2023-04-06T08:45:37.294Z,25.20
2023-04-06T08:48:04.616Z,24.52
2023-04-06T08:50:33.512Z,24.23
2023-04-06T08:53:01.165Z,24.37
2023-04-06T08:55:28.673Z,24.65
2023-04-06T08:57:56.853Z,24.94
2023-04-06T09:00:24.831Z,25.26
2023-04-06T09:02:56.618Z,25.83
2023-04-06T09:05:26.769Z,25.56
2023-04-06T09:07:54.206Z,25.24
2023-04-06T09:10:21.845Z,25.43
2023-04-06T09:12:48.966Z,25.98
2023-04-06T09:15:24.918Z,26.26
2023-04-06T09:17:54.984Z,27.22
2023-04-06T09:20:32.127Z,27.74
2023-04-06T09:22:59.226Z,28.37
2023-04-06T09:25:29.612Z,28.96
2023-04-06T09:28:01.516Z,29.19
2023-04-06T09:30:28.719Z,28.76
2023-04-06T09:32:57.582Z,28.86
2023-04-06T09:35:27.599Z,28.49
2023-04-06T09:37:55.454Z,29.00
2023-04-06T09:40:23.405Z,27.67
2023-04-06T09:42:53.880Z,27.25
2023-04-06T09:45:22.047Z,27.11
2023-04-06T09:47:51.412Z,26.62
2023-04-06T09:50:20.219Z,26.82
2023-04-06T09:52:52.817Z,26.43
2023-04-06T09:55:44.466Z,25.55
2023-04-06T09:58:15.314Z,25.04
2023-04-06T10:00:54.350Z,25.70
2023-04-06T10:03:24.304Z,26.53
2023-04-06T10:05:56.716Z,26.03
2023-04-06T10:08:31.850Z,25.82
2023-04-06T10:11:01.805Z,24.71
2023-04-06T10:13:28.911Z,24.36
2023-04-06T10:15:58.471Z,23.97
2023-04-06T10:18:25.901Z,23.96
2023-04-06T10:21:14.088Z,23.79
2023-04-06T10:23:51.742Z,23.63
2023-04-06T10:26:22.146Z,23.19
2023-04-06T10:28:50.415Z,22.28
2023-04-06T10:31:28.636Z,22.38
2023-04-06T10:34:03.757Z,21.87
2023-04-06T10:36:35.072Z,21.54
2023-04-06T10:39:05.298Z,21.12
2023-04-06T10:41:36.468Z,20.99
2023-04-06T10:44:03.948Z,20.55
2023-04-06T10:46:32.636Z,20.29
2023-04-06T10:49:11.293Z,19.97
2023-04-06T10:51:39.614Z,19.43
2023-04-06T10:54:07.739Z,19.61
2023-04-06T10:56:38.331Z,19.33
2023-04-06T10:59:06.940Z,18.88
2023-04-06T11:01:34.014Z,18.66
2023-04-06T11:04:01.267Z,18.51
2023-04-06T11:06:32.240Z,18.52
2023-04-06T11:09:00.039Z,18.56
2023-04-06T11:11:28.262Z,18.34
2023-04-06T11:14:00.476Z,18.38
2023-04-06T11:16:29.570Z,18.50
2023-04-06T11:18:59.591Z,18.68
2023-04-06T11:21:48.575Z,19.17
2023-04-06T11:24:24.171Z,19.41
2023-04-06T11:26:53.914Z,19.34
2023-04-06T11:29:23.322Z,19.12
2023-04-06T11:32:04.353Z,18.97
2023-04-06T11:34:38.096Z,18.82
2023-04-06T11:37:10.377Z,18.77
2023-04-06T11:39:41.981Z,18.68
2023-04-06T11:42:09.590Z,18.11
2023-04-06T11:44:43.739Z,18.62
2023-04-06T11:47:12.068Z,18.41
2023-04-06T11:49:41.708Z,18.17
2023-04-06T11:52:24.057Z,18.12
2023-04-06T11:54:52.815Z,17.86
2023-04-06T11:57:22.205Z,17.73
2023-04-06T11:59:49.276Z,17.68
2023-04-06T12:02:16.562Z,17.75
2023-04-06T12:04:43.639Z,17.80
2023-04-06T12:07:10.902Z,17.70
2023-04-06T12:09:38.057Z,17.74
2023-04-06T12:12:05.129Z,17.54
2023-04-06T12:14:32.107Z,17.38
2023-04-06T12:16:59.674Z,17.15
2023-04-06T12:19:27.135Z,17.08
2023-04-06T12:21:55.765Z,17.01
2023-04-06T12:24:22.876Z,16.97
2023-04-06T12:26:54.037Z,16.82
2023-04-06T12:29:26.779Z,16.84
2023-04-06T12:31:54.328Z,16.80
2023-04-06T12:34:21.569Z,16.78
2023-04-06T12:36:48.876Z,16.57
2023-04-06T12:39:17.099Z,16.40
2023-04-06T12:41:44.440Z,16.44
2023-04-06T12:44:12.335Z,16.45
2023-04-06T12:46:39.434Z,16.32
2023-04-06T12:49:06.545Z,16.25
2023-04-06T12:51:33.576Z,16.13
2023-04-06T12:54:00.853Z,15.91
2023-04-06T12:56:27.926Z,16.04
2023-04-06T12:58:55.044Z,15.48
2023-04-06T13:01:22.405Z,15.88
2023-04-06T13:03:49.565Z,15.98
2023-04-06T13:06:16.700Z,16.08
2023-04-06T13:08:44.201Z,16.10
2023-04-06T13:11:11.463Z,16.01
2023-04-06T13:13:38.769Z,15.79
2023-04-06T13:16:08.881Z,15.81
2023-04-06T13:18:37.940Z,15.85
2023-04-06T13:21:08.445Z,15.78
2023-04-06T13:23:36.859Z,15.68
2023-04-06T13:26:06.827Z,15.74
2023-04-06T13:28:36.087Z,15.57
2023-04-06T13:31:03.519Z,15.27
2023-04-06T13:33:31.156Z,15.51
2023-04-06T13:35:59.402Z,15.42
2023-04-06T13:38:26.479Z,15.41
2023-04-06T13:40:53.872Z,15.36
2023-04-06T13:43:21.680Z,15.42
2023-04-06T13:45:53.410Z,15.50
2023-04-06T13:48:20.657Z,15.49
2023-04-06T13:50:48.113Z,15.43
2023-04-06T13:53:15.106Z,15.47
2023-04-06T13:55:42.431Z,15.33
2023-04-06T13:58:09.745Z,15.33
2023-04-06T14:00:37.901Z,15.39
2023-04-06T14:03:05.214Z,15.30
2023-04-06T14:05:33.455Z,15.18
2023-04-06T14:08:00.529Z,15.18
2023-04-06T14:10:29.032Z,15.06
2023-04-06T14:12:57.047Z,15.07
2023-04-06T14:15:25.106Z,15.19
2023-04-06T14:17:52.842Z,15.08
2023-04-06T14:20:20.132Z,15.14
2023-04-06T14:22:47.786Z,14.80
2023-04-06T14:25:15.032Z,14.75
2023-04-06T14:27:41.988Z,14.70
2023-04-06T14:30:09.730Z,14.67
2023-04-06T14:32:37.745Z,14.68
2023-04-06T14:35:07.554Z,14.59
2023-04-06T14:37:35.401Z,14.33
2023-04-06T14:40:03.291Z,14.49
2023-04-06T14:42:30.855Z,14.48
2023-04-06T14:44:57.869Z,14.45
2023-04-06T14:47:25.066Z,14.53
2023-04-06T14:49:53.485Z,14.56
2023-04-06T14:52:20.710Z,14.42
2023-04-06T14:54:47.840Z,14.30
2023-04-06T14:57:14.981Z,14.17
2023-04-06T14:59:42.114Z,14.17
2023-04-06T15:02:09.306Z,13.99
2023-04-06T15:04:37.643Z,13.98
2023-04-06T15:07:04.904Z,13.87
2023-04-06T15:09:32.342Z,13.93
2023-04-06T15:11:59.335Z,13.99
2023-04-06T15:14:26.347Z,13.91
2023-04-06T15:16:53.378Z,13.88
2023-04-06T15:19:20.385Z,13.85
2023-04-06T15:21:47.338Z,13.80
2023-04-06T15:24:14.277Z,13.82
2023-04-06T15:26:41.399Z,13.74
2023-04-06T15:29:08.755Z,13.65
2023-04-06T15:31:38.500Z,13.68
2023-04-06T15:34:09.165Z,13.65
2023-04-06T15:36:36.696Z,13.61
2023-04-06T15:39:04.889Z,13.57
2023-04-06T15:41:32.299Z,13.56
2023-04-06T15:43:59.376Z,13.39
2023-04-06T15:46:28.404Z,13.40
2023-04-06T15:48:56.574Z,13.47
2023-04-06T15:51:24.476Z,13.36
2023-04-06T15:53:51.483Z,13.35
2023-04-06T15:56:18.450Z,13.35
2023-04-06T15:58:45.755Z,13.37
2023-04-06T16:01:17.091Z,13.33
2023-04-06T16:03:45.074Z,13.27
2023-04-06T16:06:12.510Z,13.12
2023-04-06T16:08:40.749Z,13.09
2023-04-06T16:11:08.240Z,13.01
2023-04-06T16:13:36.433Z,13.06
2023-04-06T16:16:04.710Z,12.81
2023-04-06T16:18:34.146Z,12.74
2023-04-06T16:21:03.227Z,12.74
2023-04-06T16:23:30.626Z,12.72
2023-04-06T16:26:00.880Z,12.76
2023-04-06T16:28:27.907Z,12.69
2023-04-06T16:30:54.899Z,12.62
2023-04-06T16:33:24.006Z,12.55
2023-04-06T16:35:51.309Z,12.50
2023-04-06T16:38:18.345Z,12.33
2023-04-06T16:40:45.319Z,12.39
2023-04-06T16:43:14.238Z,12.06
2023-04-06T16:45:41.414Z,12.35
2023-04-06T16:48:08.908Z,12.28
2023-04-06T16:50:36.494Z,12.12
2023-04-06T16:53:03.671Z,12.08
2023-04-06T16:55:30.811Z,12.00
2023-04-06T16:57:57.747Z,12.11
2023-04-06T17:00:24.956Z,11.89
2023-04-06T17:02:52.164Z,11.95
2023-04-06T17:05:24.792Z,11.99
2023-04-06T17:07:52.561Z,11.95
2023-04-06T17:10:28.646Z,11.90
2023-04-06T17:13:01.526Z,11.80
2023-04-06T17:15:29.894Z,11.67
2023-04-06T17:17:57.978Z,11.65
2023-04-06T17:20:25.147Z,11.66
2023-04-06T17:22:52.211Z,11.59
2023-04-06T17:25:19.518Z,11.58
2023-04-06T17:27:46.488Z,11.46
2023-04-06T17:30:16.228Z,11.51
2023-04-06T17:32:45.321Z,11.40
2023-04-06T17:35:12.490Z,11.41
2023-04-06T17:37:40.560Z,11.31
2023-04-06T17:40:08.182Z,10.98
2023-04-06T17:42:35.183Z,11.26
2023-04-06T17:45:02.239Z,11.21
2023-04-06T17:47:32.469Z,11.14
2023-04-06T17:50:00.884Z,10.92
2023-04-06T17:52:29.738Z,11.01
2023-04-06T17:54:56.758Z,10.72
2023-04-06T17:57:24.065Z,9.98
2023-04-06T17:59:51.344Z,10.72
2023-04-06T18:02:20.234Z,10.68
2023-04-06T18:04:51.072Z,10.68
2023-04-06T18:07:18.150Z,10.57
2023-04-06T18:09:45.610Z,10.59
2023-04-06T18:12:12.624Z,10.52
2023-04-06T18:14:40.340Z,10.35
2023-04-06T18:17:07.355Z,10.36
2023-04-06T18:19:34.693Z,10.24
2023-04-06T18:22:01.678Z,10.33
2023-04-06T18:24:41.355Z,10.11
2023-04-06T18:27:11.240Z,9.81
2023-04-06T18:29:38.418Z,10.06
2023-04-06T18:32:07.256Z,9.87
2023-04-06T18:34:35.512Z,9.93
2023-04-06T18:37:02.662Z,9.94
2023-04-06T18:39:29.755Z,9.93
2023-04-06T18:41:56.795Z,9.85
2023-04-06T18:44:23.861Z,9.85
2023-04-06T18:46:53.464Z,9.80
2023-04-06T18:49:22.113Z,9.71
2023-04-06T18:51:49.212Z,9.68
2023-04-06T18:54:16.250Z,9.69
2023-04-06T18:56:43.317Z,9.66
2023-04-06T18:59:10.863Z,9.41
2023-04-06T19:01:43.615Z,9.63
2023-04-06T19:04:11.848Z,9.55
2023-04-06T19:06:39.163Z,9.40
2023-04-06T19:09:06.316Z,9.46
2023-04-06T19:11:33.413Z,9.05
2023-04-06T19:14:00.607Z,9.40
2023-04-06T19:16:27.738Z,9.30
2023-04-06T19:18:55.598Z,9.30
2023-04-06T19:21:24.230Z,9.07
2023-04-06T19:23:52.671Z,9.15
2023-04-06T19:26:20.884Z,9.19
2023-04-06T19:28:48.523Z,9.05
2023-04-06T19:31:17.396Z,9.09
2023-04-06T19:33:45.457Z,9.01
2023-04-06T19:36:12.917Z,8.92
2023-04-06T19:38:40.376Z,8.76
2023-04-06T19:41:08.474Z,8.67
2023-04-06T19:43:35.579Z,8.73
2023-04-06T19:46:03.109Z,8.67
2023-04-06T19:48:30.769Z,8.47
2023-04-06T19:50:57.751Z,8.54
2023-04-06T19:53:24.868Z,8.54
2023-04-06T19:55:51.896Z,8.41
2023-04-06T19:58:19.250Z,8.44
2023-04-06T20:00:46.228Z,8.31
2023-04-06T20:03:13.507Z,8.36
2023-04-06T20:05:40.562Z,8.31
2023-04-06T20:08:07.844Z,8.14
2023-04-06T20:10:34.961Z,7.99
2023-04-06T20:13:01.926Z,8.08
2023-04-06T20:15:29.884Z,8.11
2023-04-06T20:17:57.025Z,8.00
2023-04-06T20:20:24.075Z,7.90
2023-04-06T20:22:51.156Z,8.06
2023-04-06T20:25:18.803Z,8.01
2023-04-06T20:27:46.044Z,7.99
2023-04-06T20:30:17.128Z,8.00
2023-04-06T20:32:44.172Z,7.96
2023-04-06T20:35:11.614Z,7.94
2023-04-06T20:37:38.949Z,7.94
2023-04-06T20:40:06.785Z,7.58
2023-04-06T20:42:34.720Z,7.74
2023-04-06T20:45:03.321Z,7.78
2023-04-06T20:47:31.762Z,7.77
2023-04-06T20:49:59.009Z,7.78
2023-04-06T20:52:26.910Z,7.73
2023-04-06T20:54:54.927Z,7.73
2023-04-06T20:57:22.791Z,7.27
2023-04-06T20:59:49.948Z,7.60
2023-04-06T21:02:17.692Z,7.66
2023-04-06T21:04:45.203Z,7.58
2023-04-06T21:07:12.388Z,7.59
2023-04-06T21:09:40.539Z,7.61
2023-04-06T21:12:08.070Z,7.57
2023-04-06T21:14:35.109Z,7.39
2023-04-06T21:17:02.493Z,7.44
2023-04-06T21:19:29.553Z,7.47
2023-04-06T21:21:56.726Z,7.46
2023-04-06T21:24:23.719Z,7.36
2023-04-06T21:26:50.763Z,7.32
2023-04-06T21:29:17.811Z,6.87
2023-04-06T21:31:44.788Z,7.24
2023-04-06T21:34:13.651Z,7.24
2023-04-06T21:36:41.999Z,7.13
2023-04-06T21:39:09.196Z,7.14
2023-04-06T21:41:36.384Z,7.17
2023-04-06T21:44:03.654Z,7.17
2023-04-06T21:46:30.764Z,7.20
2023-04-06T21:48:57.837Z,7.06
2023-04-06T21:51:25.400Z,7.07
2023-04-06T21:53:53.777Z,6.89
2023-04-06T21:56:22.512Z,7.04
2023-04-06T21:58:50.726Z,7.09
2023-04-06T22:01:18.362Z,7.04
2023-04-06T22:03:46.934Z,7.01
2023-04-06T22:06:14.273Z,6.91
2023-04-06T22:08:41.366Z,6.89
2023-04-06T22:11:11.318Z,6.86
2023-04-06T22:13:39.244Z,6.75
2023-04-06T22:16:07.151Z,6.74
2023-04-06T22:18:36.047Z,6.73
2023-04-06T22:21:04.445Z,6.50
2023-04-06T22:23:34.485Z,6.60
2023-04-06T22:26:01.614Z,6.68
2023-04-06T22:28:28.664Z,6.76
2023-04-06T22:30:55.618Z,6.45
2023-04-06T22:33:22.647Z,6.74
2023-04-06T22:35:49.901Z,6.72
2023-04-06T22:38:16.946Z,6.71
2023-04-06T22:40:43.988Z,6.68
2023-04-06T22:43:10.939Z,6.60
2023-04-06T22:45:38.108Z,6.56
2023-04-06T22:48:05.197Z,6.53
2023-04-06T22:50:32.252Z,6.54
2023-04-06T22:52:59.233Z,6.51
2023-04-06T22:55:26.309Z,6.44
2023-04-06T22:57:53.421Z,6.44
2023-04-06T23:00:20.762Z,6.33
2023-04-06T23:02:47.834Z,6.28
2023-04-06T23:05:15.012Z,6.28
2023-04-06T23:07:42.039Z,5.97
2023-04-06T23:10:09.628Z,6.34
2023-04-06T23:12:36.601Z,6.21
2023-04-06T23:15:03.709Z,6.27
2023-04-06T23:17:30.782Z,6.18
2023-04-06T23:19:57.738Z,6.18
2023-04-06T23:22:24.703Z,6.14
2023-04-06T23:24:51.665Z,6.06
2023-04-06T23:27:18.615Z,5.98
2023-04-06T23:29:45.802Z,5.90
2023-04-06T23:32:12.899Z,5.79
2023-04-06T23:34:40.034Z,5.88
2023-04-06T23:37:07.020Z,5.81
2023-04-06T23:39:35.572Z,5.73
2023-04-06T23:42:02.568Z,5.78
2023-04-06T23:44:30.952Z,5.36
2023-04-06T23:46:57.989Z,5.68
2023-04-06T23:49:25.024Z,5.66
2023-04-06T23:51:51.952Z,5.63
2023-04-06T23:54:18.864Z,5.59
2023-04-06T23:56:46.479Z,5.60
2023-04-06T23:59:13.457Z,5.58
